Terminal Aerodrome Forecast
Issued by NWS Louisville, KY

Home | Current Version | Previous Version | Text Only | Print | Product List | Glossary On
Versions: 1 2 3 4 5 6 7 8 9 10 11 12 13 14
000
FTUS43 KLMK 162300
TAFLEX
TAF
KLEX 162320Z 1700/1724 03003KT P6SM SKC
     FM170800 05003KT 4SM BR SKC
      TEMPO 1710/1712 2SM BR
     FM171300 VRB03KT P6SM SKC=

USA.gov is the U.S. government's official web portal to all federal, state and local government web resources and services.